createdAt,value
2019-04-04T00:00:10.141Z,11.30
2019-04-04T00:02:37.868Z,10.40
2019-04-04T00:05:05.849Z,12.07
2019-04-04T00:07:33.852Z,11.77
2019-04-04T00:10:02.070Z,10.57
2019-04-04T00:12:31.507Z,10.43
2019-04-04T00:15:00.001Z,10.77
2019-04-04T00:17:27.635Z,10.13
2019-04-04T00:19:55.844Z,9.87
2019-04-04T00:22:23.780Z,16.03
2019-04-04T00:24:51.888Z,12.60
2019-04-04T00:27:19.534Z,10.17
2019-04-04T00:29:47.996Z,11.20
2019-04-04T00:32:17.064Z,11.03
2019-04-04T00:34:45.317Z,14.47
2019-04-04T00:37:13.592Z,11.37
2019-04-04T00:39:41.759Z,12.80
2019-04-04T00:42:09.688Z,15.40
2019-04-04T00:44:37.597Z,12.70
2019-04-04T00:47:05.561Z,13.00
2019-04-04T00:49:35.383Z,12.43
2019-04-04T00:52:02.809Z,9.63
2019-04-04T00:54:31.100Z,12.50
2019-04-04T00:56:59.081Z,16.27
2019-04-04T00:59:27.359Z,15.93
2019-04-04T01:01:56.980Z,10.43
2019-04-04T01:04:25.129Z,13.27
2019-04-04T01:06:53.404Z,14.17
2019-04-04T01:09:22.298Z,12.50
2019-04-04T01:11:51.282Z,10.70
2019-04-04T01:14:19.839Z,10.73
2019-04-04T01:16:48.049Z,13.90
2019-04-04T01:19:16.059Z,11.47
2019-04-04T01:21:43.729Z,12.20
2019-04-04T01:24:11.952Z,11.70
2019-04-04T01:26:40.129Z,16.10
2019-04-04T01:29:10.248Z,11.60
2019-04-04T01:31:37.920Z,11.67
2019-04-04T01:34:05.820Z,12.30
2019-04-04T01:36:33.905Z,12.67
2019-04-04T01:39:02.420Z,12.33
2019-04-04T01:41:30.072Z,13.00
2019-04-04T01:44:04.811Z,12.70
2019-04-04T01:46:28.289Z,11.40
2019-04-04T01:48:56.173Z,10.20
2019-04-04T01:51:25.408Z,11.37
2019-04-04T01:53:54.664Z,10.63
2019-04-04T01:56:22.937Z,11.43
2019-04-04T01:58:51.094Z,12.50
2019-04-04T02:01:18.733Z,13.13
2019-04-04T02:03:46.713Z,10.97
2019-04-04T02:06:15.346Z,13.40
2019-04-04T02:08:43.243Z,11.47
2019-04-04T02:11:11.560Z,12.83
2019-04-04T02:13:40.899Z,11.00
2019-04-04T02:16:09.321Z,12.37
2019-04-04T02:18:37.595Z,10.77
2019-04-04T02:21:05.890Z,11.50
2019-04-04T02:23:34.078Z,10.47
2019-04-04T02:26:04.715Z,10.80
2019-04-04T02:28:31.849Z,10.63
2019-04-04T02:31:00.339Z,10.13
2019-04-04T02:33:32.225Z,9.17
2019-04-04T02:35:57.329Z,9.00
2019-04-04T02:38:28.016Z,11.00
2019-04-04T02:40:54.901Z,10.77
2019-04-04T02:43:27.222Z,10.40
2019-04-04T02:45:52.763Z,11.27
2019-04-04T02:48:23.338Z,10.30
2019-04-04T02:50:50.018Z,12.33
2019-04-04T02:53:20.318Z,10.13
2019-04-04T02:55:48.118Z,11.30
2019-04-04T02:58:16.313Z,12.27
2019-04-04T03:00:44.902Z,11.00
2019-04-04T03:03:12.537Z,11.30
2019-04-04T03:05:41.020Z,10.90
2019-04-04T03:08:09.181Z,8.83
2019-04-04T03:10:37.174Z,11.30
2019-04-04T03:13:05.097Z,13.70
2019-04-04T03:15:32.731Z,10.60
2019-04-04T03:18:03.887Z,11.27
2019-04-04T03:20:30.368Z,10.47
2019-04-04T03:23:00.531Z,9.30
2019-04-04T03:25:28.029Z,13.20
2019-04-04T03:27:58.423Z,10.07
2019-04-04T03:30:26.151Z,9.90
2019-04-04T03:32:55.405Z,11.27
2019-04-04T03:35:27.756Z,11.27
2019-04-04T03:37:53.594Z,11.40
2019-04-04T03:40:24.635Z,10.97
2019-04-04T03:42:50.955Z,13.37
2019-04-04T03:45:18.674Z,10.50
2019-04-04T03:47:46.996Z,11.63
2019-04-04T03:50:15.062Z,10.20
2019-04-04T03:52:44.571Z,10.77
2019-04-04T03:55:12.704Z,10.57
2019-04-04T03:57:40.965Z,11.13
2019-04-04T04:00:09.648Z,9.70
2019-04-04T04:02:37.621Z,10.00
2019-04-04T04:05:14.637Z,9.43
2019-04-04T04:07:41.121Z,10.67
2019-04-04T04:10:09.061Z,11.00
2019-04-04T04:12:36.994Z,10.90
2019-04-04T04:15:05.020Z,10.27
2019-04-04T04:17:36.081Z,9.80
2019-04-04T04:20:04.037Z,10.90
2019-04-04T04:22:32.794Z,10.10
2019-04-04T04:25:03.388Z,11.43
2019-04-04T04:27:30.742Z,10.90
2019-04-04T04:29:59.764Z,11.20
2019-04-04T04:32:28.368Z,10.90
2019-04-04T04:34:56.580Z,10.80
2019-04-04T04:37:24.228Z,8.87
2019-04-04T04:39:52.733Z,9.53
2019-04-04T04:42:21.277Z,9.43
2019-04-04T04:44:49.203Z,9.27
2019-04-04T04:47:16.833Z,9.80
2019-04-04T04:49:44.498Z,14.40
2019-04-04T04:52:15.173Z,10.03
2019-04-04T04:54:41.765Z,9.50
2019-04-04T04:57:14.454Z,10.73
2019-04-04T04:59:39.514Z,11.17
2019-04-04T05:02:07.417Z,11.00
2019-04-04T05:04:35.511Z,9.77
2019-04-04T05:07:03.203Z,10.90
2019-04-04T05:09:31.373Z,11.13
2019-04-04T05:11:59.015Z,11.67
2019-04-04T05:14:27.815Z,10.27
2019-04-04T05:16:57.589Z,9.53
2019-04-04T05:19:25.487Z,10.27
2019-04-04T05:21:53.491Z,12.40
2019-04-04T05:24:21.447Z,12.83
2019-04-04T05:26:49.405Z,10.77
2019-04-04T05:29:17.580Z,10.13
2019-04-04T05:31:46.200Z,12.80
2019-04-04T05:34:14.141Z,12.70
2019-04-04T05:36:41.766Z,10.67
2019-04-04T05:39:09.956Z,10.50
2019-04-04T05:41:37.674Z,9.90
2019-04-04T05:44:09.046Z,10.03
2019-04-04T05:46:35.546Z,10.33
2019-04-04T05:49:07.796Z,11.50
2019-04-04T05:51:32.839Z,12.37
2019-04-04T05:54:00.887Z,12.77
2019-04-04T05:56:28.532Z,13.20
2019-04-04T05:58:57.324Z,10.03
2019-04-04T06:01:25.355Z,10.77
2019-04-04T06:03:53.525Z,11.37
2019-04-04T06:06:21.498Z,11.43
2019-04-04T06:08:49.769Z,9.27
2019-04-04T06:11:20.894Z,9.57
2019-04-04T06:13:47.131Z,10.47
2019-04-04T06:16:18.332Z,11.97
2019-04-04T06:18:49.181Z,12.50
2019-04-04T06:21:18.573Z,12.33
2019-04-04T06:23:45.768Z,13.70
2019-04-04T06:26:13.695Z,11.20
2019-04-04T06:28:44.223Z,10.93
2019-04-04T06:31:11.032Z,12.90
2019-04-04T06:33:39.046Z,11.47
2019-04-04T06:36:06.691Z,12.63
2019-04-04T06:38:34.835Z,10.27
2019-04-04T06:41:03.208Z,13.47
2019-04-04T06:43:30.956Z,13.43
2019-04-04T06:45:58.615Z,15.53
2019-04-04T06:48:28.995Z,12.20
2019-04-04T06:50:56.044Z,11.27
2019-04-04T06:53:23.935Z,12.07
2019-04-04T06:55:51.613Z,13.23
2019-04-04T06:58:19.565Z,12.53
2019-04-04T07:00:49.889Z,13.77
2019-04-04T07:03:17.121Z,15.80
2019-04-04T07:05:45.257Z,15.30
2019-04-04T07:08:14.824Z,12.20
2019-04-04T07:10:42.610Z,13.27
2019-04-04T07:13:21.571Z,14.53
2019-04-04T07:15:46.822Z,14.10
2019-04-04T07:18:10.190Z,13.33
2019-04-04T07:20:39.827Z,13.00
2019-04-04T07:23:07.484Z,14.50
2019-04-04T07:25:36.120Z,13.77
2019-04-04T07:28:06.197Z,15.83
2019-04-04T07:30:34.737Z,13.40
2019-04-04T07:33:02.631Z,15.73
2019-04-04T07:35:31.021Z,15.67
2019-04-04T07:37:59.049Z,13.67
2019-04-04T07:40:27.371Z,13.63
2019-04-04T07:42:55.533Z,15.30
2019-04-04T07:45:26.731Z,11.50
2019-04-04T07:47:54.431Z,14.27
2019-04-04T07:50:22.081Z,13.67
2019-04-04T07:52:50.019Z,13.50
2019-04-04T07:55:17.738Z,15.17
2019-04-04T07:57:46.168Z,11.60
2019-04-04T08:00:14.228Z,13.27
2019-04-04T08:02:41.851Z,14.73
2019-04-04T08:05:12.911Z,14.27
2019-04-04T08:07:39.147Z,14.00
2019-04-04T08:10:19.538Z,17.93
2019-04-04T08:12:37.249Z,13.10
2019-04-04T08:15:05.256Z,16.20
2019-04-04T08:17:32.901Z,13.77
2019-04-04T08:20:01.055Z,14.10
2019-04-04T08:22:29.033Z,13.10
2019-04-04T08:24:56.800Z,14.10
2019-04-04T08:27:25.038Z,14.13
2019-04-04T08:29:52.960Z,14.17
2019-04-04T08:32:20.599Z,12.60
2019-04-04T08:34:48.588Z,13.50
2019-04-04T08:37:16.558Z,13.90
2019-04-04T08:39:44.566Z,12.97
2019-04-04T08:42:12.665Z,13.43
2019-04-04T08:44:40.919Z,15.67
2019-04-04T08:47:08.570Z,13.93
2019-04-04T08:49:36.840Z,14.07
2019-04-04T08:52:16.145Z,12.47
2019-04-04T08:54:34.108Z,12.20
2019-04-04T08:57:01.745Z,13.73
2019-04-04T08:59:29.687Z,12.90
2019-04-04T09:01:57.317Z,13.10
2019-04-04T09:04:24.978Z,10.40
2019-04-04T09:06:52.987Z,12.13
2019-04-04T09:09:20.993Z,11.73
2019-04-04T09:11:48.640Z,12.07
2019-04-04T09:14:16.816Z,13.67
2019-04-04T09:16:45.443Z,11.97
2019-04-04T09:19:14.002Z,10.83
2019-04-04T09:21:42.209Z,10.47
2019-04-04T09:24:10.305Z,11.53
2019-04-04T09:26:38.009Z,12.87
2019-04-04T09:29:05.988Z,8.70
2019-04-04T09:31:33.960Z,8.60
2019-04-04T09:34:03.544Z,8.83
2019-04-04T09:36:32.404Z,8.33
2019-04-04T09:39:00.345Z,8.53
2019-04-04T09:41:28.572Z,7.30
2019-04-04T09:43:56.560Z,8.70
2019-04-04T09:46:24.839Z,10.60
2019-04-04T09:48:52.781Z,9.30
2019-04-04T09:51:20.721Z,9.80
2019-04-04T09:53:53.419Z,9.30
2019-04-04T09:56:18.381Z,9.37
2019-04-04T09:58:46.305Z,10.57
2019-04-04T10:01:14.217Z,9.53
2019-04-04T10:03:42.587Z,9.40
2019-04-04T10:06:10.794Z,14.43
2019-04-04T10:08:38.977Z,10.80
2019-04-04T10:11:07.545Z,11.23
2019-04-04T10:13:35.689Z,10.70
2019-04-04T10:16:03.321Z,11.60
2019-04-04T10:18:31.964Z,13.30
2019-04-04T10:21:11.240Z,10.03
2019-04-04T10:23:29.577Z,11.63
2019-04-04T10:25:57.493Z,12.73
2019-04-04T10:28:25.769Z,12.67
2019-04-04T10:30:53.741Z,11.40
2019-04-04T10:33:21.716Z,12.20
2019-04-04T10:35:49.749Z,12.50
2019-04-04T10:38:17.944Z,12.43
2019-04-04T10:40:46.266Z,14.07
2019-04-04T10:43:14.713Z,11.77
2019-04-04T10:45:43.610Z,13.13
2019-04-04T10:48:11.928Z,12.13
2019-04-04T10:50:39.562Z,12.20
2019-04-04T10:53:07.319Z,12.10
2019-04-04T10:55:35.542Z,12.90
2019-04-04T10:58:03.454Z,12.47
2019-04-04T11:00:31.330Z,12.40
2019-04-04T11:02:58.976Z,11.27
2019-04-04T11:05:26.943Z,14.63
2019-04-04T11:07:56.816Z,14.20
2019-04-04T11:10:24.386Z,11.80
2019-04-04T11:12:52.447Z,12.67
2019-04-04T11:15:20.608Z,13.40
2019-04-04T11:17:48.589Z,12.00
2019-04-04T11:20:16.548Z,11.90
2019-04-04T11:22:44.250Z,10.57
2019-04-04T11:25:12.441Z,9.93
2019-04-04T11:27:40.712Z,10.40
2019-04-04T11:30:09.504Z,10.77
2019-04-04T11:32:37.578Z,11.40
2019-04-04T11:35:05.548Z,11.40
2019-04-04T11:37:33.564Z,11.87
2019-04-04T11:40:01.465Z,10.87
2019-04-04T11:42:29.785Z,15.40
2019-04-04T11:44:57.815Z,14.60
2019-04-04T11:47:26.321Z,9.90
2019-04-04T11:49:54.495Z,9.17
2019-04-04T11:52:22.156Z,10.67
2019-04-04T11:55:00.350Z,10.73
2019-04-04T11:57:28.441Z,6.17
2019-04-04T11:59:56.206Z,8.30
2019-04-04T12:02:25.189Z,6.03
2019-04-04T12:04:53.157Z,5.83
2019-04-04T12:07:21.752Z,7.57
2019-04-04T12:09:49.384Z,9.10
2019-04-04T12:12:17.292Z,5.13
2019-04-04T12:14:45.237Z,4.80
2019-04-04T12:17:12.881Z,5.20
2019-04-04T12:19:40.495Z,7.20
2019-04-04T12:22:08.383Z,5.00
2019-04-04T12:24:36.377Z,5.47
2019-04-04T12:27:03.992Z,5.17
2019-04-04T12:29:32.334Z,6.57
2019-04-04T12:32:00.671Z,6.80
2019-04-04T12:34:28.655Z,5.63
2019-04-04T12:36:56.632Z,7.80
2019-04-04T12:39:24.334Z,5.57
2019-04-04T12:41:52.601Z,4.80
2019-04-04T12:44:20.563Z,5.87
2019-04-04T12:46:48.566Z,4.70
2019-04-04T12:49:16.429Z,5.40
2019-04-04T12:51:44.361Z,6.73
2019-04-04T12:54:12.081Z,4.13
2019-04-04T12:56:39.996Z,5.23
2019-04-04T12:59:07.876Z,4.47
2019-04-04T13:01:35.833Z,3.93
2019-04-04T13:04:03.479Z,3.83
2019-04-04T13:06:31.784Z,4.20
2019-04-04T13:09:00.453Z,4.10
2019-04-04T13:11:28.439Z,4.00
2019-04-04T13:13:56.393Z,3.57
2019-04-04T13:16:24.381Z,4.97
2019-04-04T13:18:52.596Z,3.80
2019-04-04T13:21:21.667Z,4.00
2019-04-04T13:23:49.432Z,3.90
2019-04-04T13:26:17.364Z,4.20
2019-04-04T13:28:45.000Z,4.60
2019-04-04T13:31:12.651Z,3.70
2019-04-04T13:33:40.596Z,4.20
2019-04-04T13:36:08.607Z,4.07
2019-04-04T13:38:36.583Z,4.07
2019-04-04T13:41:04.572Z,4.20
2019-04-04T13:43:32.489Z,4.20
2019-04-04T13:46:01.011Z,4.63
2019-04-04T13:48:29.292Z,4.07
2019-04-04T13:50:56.920Z,5.00
2019-04-04T13:53:25.580Z,4.63
2019-04-04T13:55:54.449Z,5.00
2019-04-04T13:58:22.970Z,4.70
2019-04-04T14:00:51.004Z,4.87
2019-04-04T14:03:19.056Z,5.83
2019-04-04T14:05:47.041Z,8.17
2019-04-04T14:08:15.271Z,5.30
2019-04-04T14:10:43.241Z,4.63
2019-04-04T14:13:11.995Z,5.30
2019-04-04T14:15:40.597Z,5.60
2019-04-04T14:18:24.282Z,4.80
2019-04-04T14:21:02.906Z,5.60
2019-04-04T14:23:22.679Z,5.73
2019-04-04T14:25:50.961Z,8.10
2019-04-04T14:28:18.611Z,6.10
2019-04-04T14:30:46.241Z,6.10
2019-04-04T14:33:14.760Z,6.33
2019-04-04T14:35:42.383Z,5.97
2019-04-04T14:38:10.315Z,7.07
2019-04-04T14:40:38.462Z,5.57
2019-04-04T14:43:06.116Z,5.67
2019-04-04T14:45:37.037Z,5.80
2019-04-04T14:48:04.925Z,7.13
2019-04-04T14:50:32.572Z,12.60
2019-04-04T14:53:00.200Z,6.83
2019-04-04T14:55:28.846Z,5.33
2019-04-04T14:57:56.463Z,5.60
2019-04-04T15:00:24.401Z,7.43
2019-04-04T15:02:52.109Z,6.10
2019-04-04T15:05:19.766Z,6.53
2019-04-04T15:07:47.921Z,6.30
2019-04-04T15:10:16.365Z,9.20
2019-04-04T15:12:44.339Z,12.73
2019-04-04T15:15:12.354Z,7.03
2019-04-04T15:17:40.032Z,7.93
2019-04-04T15:20:07.692Z,8.87
2019-04-04T15:22:35.952Z,8.23
2019-04-04T15:25:03.698Z,7.73
2019-04-04T15:27:31.608Z,6.47
2019-04-04T15:29:59.777Z,7.80
2019-04-04T15:32:27.773Z,9.03
2019-04-04T15:34:55.397Z,8.43
2019-04-04T15:37:23.598Z,6.60
2019-04-04T15:39:51.220Z,7.73
2019-04-04T15:42:19.127Z,8.67
2019-04-04T15:44:46.762Z,9.60
2019-04-04T15:47:15.282Z,7.50
2019-04-04T15:49:43.554Z,9.27
2019-04-04T15:52:11.172Z,7.90
2019-04-04T15:54:39.383Z,7.33
2019-04-04T15:57:07.399Z,7.70
2019-04-04T15:59:36.147Z,7.90
2019-04-04T16:02:04.111Z,7.57
2019-04-04T16:04:32.070Z,7.93
2019-04-04T16:06:59.716Z,7.40
2019-04-04T16:09:27.713Z,6.87
2019-04-04T16:11:55.943Z,6.67
2019-04-04T16:14:24.199Z,6.97
2019-04-04T16:16:52.544Z,6.47
2019-04-04T16:19:20.858Z,6.53
2019-04-04T16:21:49.052Z,6.53
2019-04-04T16:24:16.707Z,6.67
2019-04-04T16:26:44.858Z,6.83
2019-04-04T16:29:12.475Z,7.70
2019-04-04T16:31:40.114Z,7.57
2019-04-04T16:34:08.066Z,7.20
2019-04-04T16:36:36.096Z,7.47
2019-04-04T16:39:05.356Z,7.73
2019-04-04T16:41:32.978Z,6.53
2019-04-04T16:44:00.861Z,9.77
2019-04-04T16:46:28.806Z,9.20
2019-04-04T16:48:57.173Z,6.73
2019-04-04T16:51:25.080Z,7.40
2019-04-04T16:53:52.749Z,7.13
2019-04-04T16:56:21.281Z,8.00
2019-04-04T16:58:48.931Z,6.80
2019-04-04T17:01:17.824Z,8.80
2019-04-04T17:03:45.793Z,12.03
2019-04-04T17:06:13.778Z,9.10
2019-04-04T17:08:42.112Z,7.73
2019-04-04T17:11:10.353Z,8.03
2019-04-04T17:13:38.699Z,9.73
2019-04-04T17:16:06.585Z,15.73
2019-04-04T17:18:34.238Z,14.47
2019-04-04T17:21:02.205Z,12.00
2019-04-04T17:23:30.077Z,10.70
2019-04-04T17:25:58.060Z,11.30
2019-04-04T17:28:26.094Z,10.73
2019-04-04T17:30:54.072Z,10.53
2019-04-04T17:33:22.971Z,12.07
2019-04-04T17:35:51.028Z,11.90
2019-04-04T17:38:19.339Z,8.60
2019-04-04T17:40:46.974Z,13.80
2019-04-04T17:43:15.204Z,10.60
2019-04-04T17:45:42.840Z,9.30
2019-04-04T17:48:11.086Z,13.60
2019-04-04T17:50:39.222Z,22.93
2019-04-04T17:53:07.686Z,13.10
2019-04-04T17:55:36.853Z,10.50
2019-04-04T17:58:05.035Z,11.37
2019-04-04T18:00:33.115Z,9.50
2019-04-04T18:03:01.318Z,9.37
2019-04-04T18:05:29.265Z,14.10
2019-04-04T18:07:57.220Z,14.20
2019-04-04T18:10:25.305Z,14.80
2019-04-04T18:12:52.953Z,17.43
2019-04-04T18:15:21.101Z,19.43
2019-04-04T18:17:48.743Z,19.80
2019-04-04T18:20:17.862Z,14.83
2019-04-04T18:22:45.760Z,9.40
2019-04-04T18:25:13.755Z,9.50
2019-04-04T18:27:42.759Z,8.50
2019-04-04T18:30:10.737Z,8.03
2019-04-04T18:32:38.726Z,11.70
2019-04-04T18:35:08.422Z,9.63
2019-04-04T18:37:36.156Z,9.90
2019-04-04T18:40:04.885Z,8.07
2019-04-04T18:42:33.652Z,9.40
2019-04-04T18:45:01.759Z,9.80
2019-04-04T18:47:29.851Z,9.80
2019-04-04T18:49:58.067Z,10.30
2019-04-04T18:52:26.191Z,9.23
2019-04-04T18:54:53.843Z,8.83
2019-04-04T18:57:21.538Z,12.33
2019-04-04T18:59:49.790Z,9.90
2019-04-04T19:02:17.653Z,12.83
2019-04-04T19:04:45.558Z,9.77
2019-04-04T19:07:13.796Z,8.43
2019-04-04T19:09:41.693Z,13.03
2019-04-04T19:12:09.342Z,13.40
2019-04-04T19:14:37.249Z,14.07
2019-04-04T19:17:05.159Z,13.83
2019-04-04T19:19:33.745Z,11.57
2019-04-04T19:22:01.689Z,10.87
2019-04-04T19:24:29.899Z,9.23
2019-04-04T19:26:57.636Z,8.77
2019-04-04T19:29:25.278Z,9.50
2019-04-04T19:31:53.168Z,12.00
2019-04-04T19:34:21.319Z,12.73
2019-04-04T19:36:48.971Z,15.43
2019-04-04T19:39:17.704Z,10.13
2019-04-04T19:41:45.889Z,10.40
2019-04-04T19:44:13.563Z,9.53
2019-04-04T19:46:41.271Z,11.17
2019-04-04T19:49:09.500Z,10.87
2019-04-04T19:51:37.478Z,9.80
2019-04-04T19:54:05.165Z,10.10
2019-04-04T19:56:32.856Z,14.07
2019-04-04T19:59:00.950Z,11.03
2019-04-04T20:01:29.841Z,11.43
2019-04-04T20:03:57.814Z,11.00
2019-04-04T20:06:26.177Z,12.83
2019-04-04T20:08:54.779Z,11.80
2019-04-04T20:11:22.764Z,13.00
2019-04-04T20:13:50.495Z,12.77
2019-04-04T20:16:19.362Z,15.93
2019-04-04T20:18:47.580Z,14.47
2019-04-04T20:21:15.258Z,13.97
2019-04-04T20:23:43.285Z,18.80
2019-04-04T20:26:11.280Z,22.10
2019-04-04T20:28:40.255Z,17.03
2019-04-04T20:31:08.640Z,14.57
2019-04-04T20:33:36.300Z,13.90
2019-04-04T20:36:04.277Z,12.63
2019-04-04T20:38:32.353Z,12.40
2019-04-04T20:41:00.909Z,16.90
2019-04-04T20:43:28.924Z,12.23
2019-04-04T20:45:56.932Z,13.13
2019-04-04T20:48:24.863Z,12.57
2019-04-04T20:50:53.210Z,13.17
2019-04-04T20:53:22.317Z,14.17
2019-04-04T20:55:50.615Z,13.53
2019-04-04T20:58:18.268Z,13.30
2019-04-04T21:00:46.520Z,12.70
2019-04-04T21:03:14.660Z,12.40
2019-04-04T21:05:42.606Z,12.80
2019-04-04T21:08:10.535Z,11.10
2019-04-04T21:10:38.425Z,13.83
2019-04-04T21:13:06.781Z,13.53
2019-04-04T21:15:34.492Z,12.97
2019-04-04T21:18:02.128Z,12.20
2019-04-04T21:20:30.591Z,12.33
2019-04-04T21:22:59.069Z,15.30
2019-04-04T21:25:27.545Z,11.30
2019-04-04T21:27:55.468Z,12.13
2019-04-04T21:30:23.528Z,13.50
2019-04-04T21:32:51.760Z,12.20
2019-04-04T21:35:20.060Z,13.73
2019-04-04T21:37:47.711Z,11.57
2019-04-04T21:40:15.673Z,10.40
2019-04-04T21:42:43.764Z,13.53
2019-04-04T21:45:11.504Z,9.83
2019-04-04T21:47:39.645Z,10.27
2019-04-04T21:50:07.751Z,9.17
2019-04-04T21:52:35.460Z,13.97
2019-04-04T21:55:03.485Z,11.37
2019-04-04T21:57:31.127Z,10.97
2019-04-04T21:59:58.751Z,10.90
2019-04-04T22:02:26.979Z,12.90
2019-04-04T22:04:54.877Z,15.13
2019-04-04T22:07:23.125Z,9.00
2019-04-04T22:09:51.045Z,12.10
2019-04-04T22:12:18.978Z,8.57
2019-04-04T22:14:46.966Z,11.33
2019-04-04T22:17:15.219Z,11.50
2019-04-04T22:19:43.112Z,11.30
2019-04-04T22:22:11.002Z,9.50
2019-04-04T22:24:38.920Z,8.63
2019-04-04T22:27:07.180Z,9.97
2019-04-04T22:29:34.826Z,11.03
2019-04-04T22:32:02.719Z,8.47
2019-04-04T22:34:30.825Z,10.30
2019-04-04T22:36:59.048Z,8.83
2019-04-04T22:39:26.771Z,9.00
2019-04-04T22:41:54.753Z,8.20
2019-04-04T22:44:34.057Z,10.63
2019-04-04T22:46:52.349Z,11.50
2019-04-04T22:49:20.246Z,11.83
2019-04-04T22:51:48.249Z,8.97
2019-04-04T22:54:16.800Z,8.43
2019-04-04T22:56:44.432Z,8.90
2019-04-04T22:59:12.060Z,8.03
2019-04-04T23:01:39.971Z,8.87
2019-04-04T23:04:08.212Z,8.57
2019-04-04T23:06:36.843Z,10.67
2019-04-04T23:09:06.415Z,15.27
2019-04-04T23:11:34.347Z,12.40
2019-04-04T23:14:02.593Z,9.40
2019-04-04T23:16:30.484Z,9.40
2019-04-04T23:18:58.127Z,9.50
2019-04-04T23:21:25.761Z,9.20
2019-04-04T23:23:54.216Z,9.53
2019-04-04T23:26:22.132Z,15.20
2019-04-04T23:28:50.081Z,10.37
2019-04-04T23:31:17.720Z,10.57
2019-04-04T23:33:45.883Z,10.07
2019-04-04T23:36:14.108Z,12.47
2019-04-04T23:38:42.289Z,12.17
2019-04-04T23:41:10.465Z,13.00
2019-04-04T23:43:38.863Z,11.83
2019-04-04T23:46:07.215Z,12.00
2019-04-04T23:48:35.105Z,12.90
2019-04-04T23:51:03.089Z,11.20
2019-04-04T23:53:31.145Z,11.20
2019-04-04T23:55:59.124Z,14.90
2019-04-04T23:58:26.768Z,9.20
